Time;durP1;ratioP1;P1;durP2;ratioP2;P2;SDS_P1;SDS_P2;PMS_P1;PMS_P2;Temp;Humidity;BMP_temperature;BMP_pressure;BME280_temperature;BME280_humidity;BME280_pressure;Samples;Min_cycle;Max_cycle;Signal;HPM_P1;HPM_P2
2021/11/13 00:00:49;;;;;;;7.57;5.35;;;;;;;;;;4983598;28;20540;-79
2021/11/13 00:03:16;;;;;;;6.13;5.00;;;;;;;;;;4984452;28;20694;-75
2021/11/13 00:05:44;;;;;;;7.15;5.50;;;;;;;;;;4981011;28;20576;-78
2021/11/13 00:08:12;;;;;;;6.03;5.43;;;;;;;;;;4983086;28;21014;-76
2021/11/13 00:10:40;;;;;;;5.68;5.18;;;;;;;;;;4985280;28;20207;-78
2021/11/13 00:13:09;;;;;;;6.25;5.65;;;;;;;;;;4983263;28;20205;-77
2021/11/13 00:15:37;;;;;;;6.50;5.13;;;;;;;;;;4983186;28;20205;-77
2021/11/13 00:18:04;;;;;;;6.47;5.90;;;;;;;;;;4982817;28;20564;-78
2021/11/13 00:20:31;;;;;;;6.90;5.32;;;;;;;;;;4983201;28;20213;-76
2021/11/13 00:22:59;;;;;;;6.03;5.43;;;;;;;;;;4983687;28;20197;-80
2021/11/13 00:25:28;;;;;;;6.95;5.15;;;;;;;;;;4985715;28;20900;-79
2021/11/13 00:27:55;;;;;;;5.25;4.75;;;;;;;;;;4985487;28;20224;-80
2021/11/13 00:30:22;;;;;;;7.25;6.28;;;;;;;;;;4982531;28;20200;-79
2021/11/13 00:32:49;;;;;;;4.68;4.20;;;;;;;;;;4987804;28;20210;-78
2021/11/13 00:35:16;;;;;;;7.32;4.82;;;;;;;;;;4992487;28;20193;-79
2021/11/13 00:37:44;;;;;;;7.10;5.15;;;;;;;;;;4993082;28;20205;-78
2021/11/13 00:40:12;;;;;;;5.85;5.07;;;;;;;;;;4990658;28;20668;-78
2021/11/13 00:42:41;;;;;;;5.47;4.07;;;;;;;;;;4991713;28;20252;-78
2021/11/13 00:45:09;;;;;;;5.95;4.85;;;;;;;;;;4992308;28;20196;-79
2021/11/13 00:47:36;;;;;;;5.57;4.20;;;;;;;;;;4987875;28;20224;-78
2021/11/13 00:50:03;;;;;;;5.63;5.07;;;;;;;;;;4986633;28;20205;-78
2021/11/13 00:52:30;;;;;;;6.30;5.10;;;;;;;;;;4990468;28;20189;-81
2021/11/13 00:54:57;;;;;;;7.78;5.05;;;;;;;;;;4988744;28;20635;-77
2021/11/13 00:57:24;;;;;;;5.50;4.60;;;;;;;;;;4988759;28;20210;-77
2021/11/13 00:59:53;;;;;;;6.45;5.75;;;;;;;;;;4980888;28;20651;-78
2021/11/13 01:02:20;;;;;;;5.88;4.70;;;;;;;;;;4983588;28;20268;-77
2021/11/13 01:04:47;;;;;;;6.40;5.32;;;;;;;;;;4984796;28;20253;-77
2021/11/13 01:07:14;;;;;;;5.43;4.93;;;;;;;;;;4990056;28;20224;-76
2021/11/13 01:09:41;;;;;;;7.63;5.40;;;;;;;;;;4988932;28;20205;-78
2021/11/13 01:12:08;;;;;;;4.72;3.80;;;;;;;;;;4985405;28;20204;-79
2021/11/13 01:14:40;;;;;;;4.90;4.30;;;;;;;;;;4986290;28;20193;-79
2021/11/13 01:17:08;;;;;;;6.88;4.38;;;;;;;;;;4989546;28;20567;-77
2021/11/13 01:19:35;;;;;;;5.32;4.35;;;;;;;;;;4988655;28;20197;-77
2021/11/13 01:22:02;;;;;;;5.57;4.40;;;;;;;;;;4989937;28;20201;-76
2021/11/13 01:24:29;;;;;;;6.40;4.38;;;;;;;;;;4988877;28;20193;-77
2021/11/13 01:26:56;;;;;;;6.60;5.05;;;;;;;;;;4990262;28;20741;-80
2021/11/13 01:29:23;;;;;;;6.18;4.53;;;;;;;;;;4982998;28;20198;-76
2021/11/13 01:31:50;;;;;;;5.32;4.50;;;;;;;;;;4987916;28;20200;-79
2021/11/13 01:34:19;;;;;;;6.60;5.10;;;;;;;;;;4988124;28;20196;-78
2021/11/13 01:36:46;;;;;;;4.53;4.13;;;;;;;;;;4984904;28;20211;-77
2021/11/13 01:39:13;;;;;;;4.80;4.32;;;;;;;;;;4991062;28;20201;-77
2021/11/13 01:41:40;;;;;;;6.38;5.22;;;;;;;;;;5000404;28;20835;-76
2021/11/13 01:44:07;;;;;;;5.22;4.38;;;;;;;;;;4989267;28;20220;-76
2021/11/13 01:46:34;;;;;;;5.70;4.40;;;;;;;;;;4985351;28;20231;-76
2021/11/13 01:49:01;;;;;;;5.70;5.07;;;;;;;;;;4991062;28;20488;-75
2021/11/13 01:51:30;;;;;;;6.90;5.03;;;;;;;;;;4990970;28;20189;-77
2021/11/13 01:54:00;;;;;;;5.82;4.53;;;;;;;;;;4987849;28;20201;-76
2021/11/13 01:56:27;;;;;;;5.78;4.80;;;;;;;;;;4989226;28;20220;-77
2021/11/13 01:58:55;;;;;;;6.30;5.70;;;;;;;;;;4990721;28;20288;-76
2021/11/13 02:01:22;;;;;;;5.07;4.57;;;;;;;;;;4990662;28;20193;-76
2021/11/13 02:03:50;;;;;;;5.03;4.53;;;;;;;;;;4990660;28;20547;-76
2021/11/13 02:06:18;;;;;;;4.80;4.30;;;;;;;;;;4990900;28;20211;-76
2021/11/13 02:08:47;;;;;;;5.65;4.53;;;;;;;;;;4987546;28;20316;-76
2021/11/13 02:11:15;;;;;;;5.00;4.50;;;;;;;;;;4991014;28;20197;-77
2021/11/13 02:13:42;;;;;;;6.43;4.40;;;;;;;;;;4989755;28;20200;-77
2021/11/13 02:16:09;;;;;;;5.30;4.80;;;;;;;;;;4992335;28;20216;-76
2021/11/13 02:18:36;;;;;;;5.68;5.07;;;;;;;;;;4989758;28;20651;-77
2021/11/13 02:21:05;;;;;;;4.63;4.05;;;;;;;;;;4993167;28;20656;-76
2021/11/13 02:23:32;;;;;;;4.72;4.32;;;;;;;;;;4994346;28;20200;-76
2021/11/13 02:25:59;;;;;;;5.13;4.55;;;;;;;;;;4994318;28;20200;-77
2021/11/13 02:28:27;;;;;;;6.57;4.70;;;;;;;;;;4990746;28;20227;-76
2021/11/13 02:30:54;;;;;;;4.72;3.65;;;;;;;;;;4992740;28;20192;-76
2021/11/13 02:33:22;;;;;;;4.03;3.58;;;;;;;;;;4993357;28;20204;-76
2021/11/13 02:35:50;;;;;;;7.00;4.20;;;;;;;;;;4993527;28;20555;-77
2021/11/13 02:38:20;;;;;;;5.05;3.60;;;;;;;;;;4991655;28;20201;-78
2021/11/13 02:40:48;;;;;;;6.00;4.50;;;;;;;;;;4992524;28;20945;-77
2021/11/13 02:43:15;;;;;;;6.18;4.97;;;;;;;;;;4994712;28;20196;-77
2021/11/13 02:45:43;;;;;;;6.43;4.22;;;;;;;;;;4994118;28;20192;-78
2021/11/13 02:48:11;;;;;;;5.30;4.40;;;;;;;;;;4994104;28;20224;-78
2021/11/13 02:50:38;;;;;;;5.88;3.72;;;;;;;;;;4988611;28;20552;-77
2021/11/13 02:53:11;;;;;;;4.80;4.40;;;;;;;;;;4993376;28;20193;-77
2021/11/13 02:55:39;;;;;;;4.85;4.05;;;;;;;;;;4988524;28;20312;-78
2021/11/13 02:58:07;;;;;;;5.88;4.60;;;;;;;;;;4992810;28;20575;-77
2021/11/13 03:00:34;;;;;;;4.72;4.22;;;;;;;;;;4991640;28;20192;-78
2021/11/13 03:03:01;;;;;;;6.60;4.90;;;;;;;;;;4992394;28;20571;-78
2021/11/13 03:05:30;;;;;;;4.70;4.30;;;;;;;;;;4987527;28;20189;-78
2021/11/13 03:07:58;;;;;;;5.07;4.53;;;;;;;;;;4992545;28;20248;-78
2021/11/13 03:10:26;;;;;;;5.50;4.22;;;;;;;;;;4993002;28;20193;-78
2021/11/13 03:12:55;;;;;;;4.90;4.45;;;;;;;;;;4993775;28;20566;-78
2021/11/13 03:15:23;;;;;;;5.70;4.43;;;;;;;;;;4993108;28;20193;-78
2021/11/13 03:17:51;;;;;;;5.80;4.30;;;;;;;;;;4987070;28;20201;-78
2021/11/13 03:20:19;;;;;;;8.77;4.85;;;;;;;;;;4974916;28;20194;-77
2021/11/13 03:22:46;;;;;;;5.15;4.65;;;;;;;;;;4980298;28;20216;-78
2021/11/13 03:25:15;;;;;;;4.00;3.53;;;;;;;;;;4990588;28;20197;-79
2021/11/13 03:27:45;;;;;;;5.40;4.20;;;;;;;;;;4992622;28;20640;-78
2021/11/13 03:30:14;;;;;;;7.80;4.22;;;;;;;;;;4989929;28;20208;-78
2021/11/13 03:32:41;;;;;;;4.28;3.50;;;;;;;;;;4989597;28;20211;-78
2021/11/13 03:35:09;;;;;;;5.88;4.03;;;;;;;;;;4994173;28;20216;-78
2021/11/13 03:37:36;;;;;;;5.10;4.40;;;;;;;;;;4992940;28;20197;-78
2021/11/13 03:40:04;;;;;;;6.13;4.93;;;;;;;;;;4991253;28;20548;-78
2021/11/13 03:42:32;;;;;;;7.68;4.50;;;;;;;;;;4990190;28;20196;-80
2021/11/13 03:45:00;;;;;;;5.35;4.13;;;;;;;;;;4991160;28;20590;-77
2021/11/13 03:47:29;;;;;;;4.75;4.25;;;;;;;;;;4990860;28;20591;-76
2021/11/13 03:49:56;;;;;;;6.28;4.30;;;;;;;;;;4984261;28;20200;-76
2021/11/13 03:52:23;;;;;;;5.38;3.78;;;;;;;;;;4990288;28;20223;-76
2021/11/13 03:54:53;;;;;;;5.72;3.95;;;;;;;;;;4988233;28;20229;-77
2021/11/13 03:57:20;;;;;;;6.03;4.93;;;;;;;;;;4988444;28;20247;-77
2021/11/13 03:59:48;;;;;;;7.10;3.95;;;;;;;;;;4983124;28;20197;-75
2021/11/13 04:02:16;;;;;;;6.93;3.97;;;;;;;;;;4991659;28;20199;-76
2021/11/13 04:04:44;;;;;;;7.00;4.72;;;;;;;;;;4990158;28;20591;-76
2021/11/13 04:07:12;;;;;;;6.03;4.47;;;;;;;;;;4991270;28;20594;-76
2021/11/13 04:09:39;;;;;;;4.95;4.55;;;;;;;;;;4989597;28;20727;-76
2021/11/13 04:12:07;;;;;;;5.15;3.85;;;;;;;;;;4988691;28;20205;-78
2021/11/13 04:14:34;;;;;;;5.25;4.05;;;;;;;;;;4989070;28;20681;-77
2021/11/13 04:17:01;;;;;;;5.63;4.50;;;;;;;;;;4987911;28;20244;-78
2021/11/13 04:19:29;;;;;;;4.63;3.85;;;;;;;;;;4989863;28;21213;-78
2021/11/13 04:21:57;;;;;;;4.93;4.38;;;;;;;;;;4987914;28;20202;-78
2021/11/13 04:24:24;;;;;;;5.00;3.75;;;;;;;;;;4987354;28;20208;-78
2021/11/13 04:26:52;;;;;;;5.78;4.70;;;;;;;;;;4991228;28;20197;-77
2021/11/13 04:29:19;;;;;;;5.55;3.50;;;;;;;;;;4990356;28;20223;-78
2021/11/13 04:31:46;;;;;;;6.90;4.72;;;;;;;;;;4991632;28;20189;-78
2021/11/13 04:34:19;;;;;;;6.18;4.10;;;;;;;;;;4986443;28;20208;-78
2021/11/13 04:36:47;;;;;;;5.75;3.70;;;;;;;;;;4989222;28;20193;-78
2021/11/13 04:39:15;;;;;;;4.65;4.18;;;;;;;;;;4991071;28;20211;-79
2021/11/13 04:41:42;;;;;;;5.65;4.60;;;;;;;;;;4991490;28;20559;-76
2021/11/13 04:44:10;;;;;;;6.93;4.18;;;;;;;;;;4990373;28;20524;-76
2021/11/13 04:46:37;;;;;;;5.30;4.28;;;;;;;;;;4979991;28;20205;-76
2021/11/13 04:49:05;;;;;;;4.32;3.92;;;;;;;;;;4987346;28;20213;-76
2021/11/13 04:51:32;;;;;;;5.78;4.03;;;;;;;;;;4990095;28;20207;-77
2021/11/13 04:53:59;;;;;;;5.05;4.20;;;;;;;;;;4990469;28;20207;-78
2021/11/13 04:56:27;;;;;;;5.43;3.70;;;;;;;;;;4989784;28;20220;-77
2021/11/13 04:58:54;;;;;;;6.00;5.40;;;;;;;;;;4987661;28;20208;-77
2021/11/13 05:01:21;;;;;;;9.23;3.95;;;;;;;;;;4981521;28;20193;-77
2021/11/13 05:03:48;;;;;;;5.10;4.28;;;;;;;;;;4985640;28;20193;-78
2021/11/13 05:06:15;;;;;;;5.97;4.00;;;;;;;;;;4991238;28;20674;-77
2021/11/13 05:08:42;;;;;;;5.30;3.92;;;;;;;;;;4986196;28;20260;-76
2021/11/13 05:11:09;;;;;;;4.90;4.13;;;;;;;;;;4982278;28;20209;-77
2021/11/13 05:13:38;;;;;;;4.25;3.85;;;;;;;;;;4982778;28;20188;-76
2021/11/13 05:16:05;;;;;;;5.53;4.13;;;;;;;;;;4986606;28;20201;-77
2021/11/13 05:18:32;;;;;;;6.15;4.22;;;;;;;;;;4985229;28;20204;-76
2021/11/13 05:20:59;;;;;;;7.05;4.50;;;;;;;;;;4988173;28;20200;-78
2021/11/13 05:23:26;;;;;;;5.38;4.00;;;;;;;;;;4989679;28;20197;-78
2021/11/13 05:25:53;;;;;;;4.93;4.32;;;;;;;;;;4980423;28;20197;-79
2021/11/13 05:28:21;;;;;;;5.30;3.85;;;;;;;;;;4984540;28;20239;-78
2021/11/13 05:30:49;;;;;;;6.20;4.85;;;;;;;;;;4978857;28;20197;-77
2021/11/13 05:33:16;;;;;;;6.13;4.53;;;;;;;;;;4991436;28;20204;-78
2021/11/13 05:35:43;;;;;;;4.70;4.15;;;;;;;;;;4992220;28;20197;-76
2021/11/13 05:38:10;;;;;;;5.90;4.10;;;;;;;;;;4989435;28;20201;-80
2021/11/13 05:40:37;;;;;;;4.18;3.50;;;;;;;;;;4983161;28;20192;-76
2021/11/13 05:43:05;;;;;;;4.70;3.80;;;;;;;;;;4986005;28;20205;-76
2021/11/13 05:45:32;;;;;;;4.93;4.05;;;;;;;;;;4978530;28;20722;-78
2021/11/13 05:48:00;;;;;;;4.60;4.00;;;;;;;;;;4986446;28;20221;-76
2021/11/13 05:50:27;;;;;;;4.60;4.15;;;;;;;;;;4991521;28;20205;-77
2021/11/13 05:52:54;;;;;;;5.47;4.32;;;;;;;;;;4991789;28;20197;-79
2021/11/13 05:55:24;;;;;;;6.15;4.68;;;;;;;;;;4992642;28;20231;-76
2021/11/13 05:57:51;;;;;;;4.82;4.32;;;;;;;;;;4991637;28;20643;-76
2021/11/13 06:00:21;;;;;;;4.57;4.10;;;;;;;;;;4992707;28;20204;-78
2021/11/13 06:02:48;;;;;;;6.40;4.05;;;;;;;;;;4992657;28;20201;-78
2021/11/13 06:05:17;;;;;;;8.38;4.18;;;;;;;;;;4987999;28;20193;-77
2021/11/13 06:07:44;;;;;;;6.47;4.00;;;;;;;;;;4991893;28;20200;-78
2021/11/13 06:10:12;;;;;;;7.65;4.75;;;;;;;;;;4992501;28;20189;-78
2021/11/13 06:12:39;;;;;;;4.10;3.30;;;;;;;;;;4994030;28;20200;-76
2021/11/13 06:15:06;;;;;;;4.25;3.45;;;;;;;;;;4994196;28;20865;-78
2021/11/13 06:17:34;;;;;;;4.45;4.05;;;;;;;;;;4986373;28;20203;-75
2021/11/13 06:20:01;;;;;;;4.60;4.20;;;;;;;;;;4977990;28;20206;-77
2021/11/13 06:22:29;;;;;;;6.03;3.70;;;;;;;;;;4989659;28;20202;-76
2021/11/13 06:24:56;;;;;;;5.97;4.35;;;;;;;;;;4983977;28;20197;-78
2021/11/13 06:27:23;;;;;;;5.38;4.65;;;;;;;;;;4991357;28;20193;-76
2021/11/13 06:29:51;;;;;;;8.25;3.97;;;;;;;;;;4990727;28;20236;-76
2021/11/13 06:32:18;;;;;;;4.95;4.47;;;;;;;;;;4984527;28;20200;-76
2021/11/13 06:34:45;;;;;;;5.05;4.20;;;;;;;;;;4994643;28;20200;-77
2021/11/13 06:37:12;;;;;;;6.72;3.90;;;;;;;;;;4993975;28;20208;-77
2021/11/13 06:39:40;;;;;;;4.93;3.75;;;;;;;;;;4988064;28;20198;-80
2021/11/13 06:42:07;;;;;;;5.90;4.22;;;;;;;;;;4988061;28;20623;-77
2021/11/13 06:44:34;;;;;;;4.70;3.60;;;;;;;;;;4988899;28;20663;-77
2021/11/13 06:47:02;;;;;;;5.13;3.70;;;;;;;;;;4990249;28;20243;-78
2021/11/13 06:49:29;;;;;;;5.00;4.15;;;;;;;;;;4993189;28;20243;-77
2021/11/13 06:51:56;;;;;;;8.55;4.63;;;;;;;;;;4988202;28;20225;-83
2021/11/13 06:54:23;;;;;;;5.55;3.92;;;;;;;;;;4994085;28;20208;-84
2021/11/13 06:56:51;;;;;;;4.18;3.78;;;;;;;;;;4993612;28;20233;-81
2021/11/13 06:59:20;;;;;;;4.03;3.65;;;;;;;;;;4986161;28;20674;-81
2021/11/13 07:01:47;;;;;;;4.22;3.45;;;;;;;;;;4987679;28;20224;-81
2021/11/13 07:04:14;;;;;;;5.30;4.15;;;;;;;;;;4989645;28;20200;-81
2021/11/13 07:06:41;;;;;;;6.72;3.70;;;;;;;;;;4994250;28;20192;-80
2021/11/13 07:09:08;;;;;;;5.40;4.10;;;;;;;;;;4991928;28;20238;-80
2021/11/13 07:11:35;;;;;;;5.82;4.68;;;;;;;;;;4993787;28;20204;-85
2021/11/13 07:14:03;;;;;;;3.58;3.25;;;;;;;;;;4989994;28;20204;-79
2021/11/13 07:16:30;;;;;;;5.18;4.05;;;;;;;;;;4990204;28;20193;-79
2021/11/13 07:18:57;;;;;;;4.13;3.42;;;;;;;;;;4992738;28;20203;-82
2021/11/13 07:21:25;;;;;;;4.22;3.83;;;;;;;;;;4993412;28;20209;-79
2021/11/13 07:23:52;;;;;;;3.35;3.05;;;;;;;;;;4988040;28;20200;-80
2021/11/13 07:26:19;;;;;;;3.88;3.47;;;;;;;;;;4984322;28;21193;-81
2021/11/13 07:28:49;;;;;;;5.43;3.95;;;;;;;;;;4992793;28;20216;-81
2021/11/13 07:31:18;;;;;;;4.43;3.90;;;;;;;;;;4992788;28;20190;-80
2021/11/13 07:33:46;;;;;;;4.00;3.05;;;;;;;;;;4976983;28;20198;-80
2021/11/13 07:36:13;;;;;;;4.45;3.42;;;;;;;;;;4989944;28;20288;-77
2021/11/13 07:38:40;;;;;;;4.90;3.60;;;;;;;;;;4988934;28;20201;-79
2021/11/13 07:41:08;;;;;;;3.63;3.20;;;;;;;;;;4993416;28;22194;-79
2021/11/13 07:43:35;;;;;;;3.25;2.90;;;;;;;;;;4993758;28;20201;-79
2021/11/13 07:46:02;;;;;;;3.88;3.45;;;;;;;;;;4992993;28;20207;-81
2021/11/13 07:48:30;;;;;;;5.00;2.97;;;;;;;;;;4988267;28;20694;-84
2021/11/13 07:50:57;;;;;;;3.38;3.08;;;;;;;;;;4985308;28;20648;-78
2021/11/13 07:53:25;;;;;;;3.15;2.88;;;;;;;;;;4992018;28;20228;-77
2021/11/13 07:55:52;;;;;;;4.65;3.50;;;;;;;;;;4990208;28;20243;-79
2021/11/13 07:58:19;;;;;;;3.90;3.40;;;;;;;;;;4991069;28;20196;-80
2021/11/13 08:00:47;;;;;;;3.00;2.65;;;;;;;;;;4990552;28;20192;-79
2021/11/13 08:03:14;;;;;;;3.42;3.13;;;;;;;;;;5000206;28;20188;-78
2021/11/13 08:05:43;;;;;;;4.82;3.58;;;;;;;;;;4994212;28;20198;-77
2021/11/13 08:08:10;;;;;;;4.03;3.15;;;;;;;;;;4982487;28;20600;-76
2021/11/13 08:10:41;;;;;;;4.40;3.28;;;;;;;;;;4987349;28;20208;-77
2021/11/13 08:13:08;;;;;;;4.63;2.20;;;;;;;;;;4993226;28;20283;-79
2021/11/13 08:15:35;;;;;;;2.63;2.42;;;;;;;;;;4991474;28;20197;-80
2021/11/13 08:18:02;;;;;;;3.58;3.28;;;;;;;;;;4992901;28;20204;-80
2021/11/13 08:20:30;;;;;;;3.25;2.72;;;;;;;;;;4992927;28;20196;-80
2021/11/13 08:22:59;;;;;;;3.10;2.80;;;;;;;;;;4990412;28;20193;-80
2021/11/13 08:25:26;;;;;;;3.60;3.10;;;;;;;;;;4991540;28;20571;-81
2021/11/13 08:27:53;;;;;;;4.95;3.08;;;;;;;;;;4993376;28;20240;-82
2021/11/13 08:30:22;;;;;;;3.45;2.60;;;;;;;;;;4991932;28;20220;-81
2021/11/13 08:32:49;;;;;;;3.53;3.05;;;;;;;;;;4993239;28;20193;-82
2021/11/13 08:35:17;;;;;;;8.18;4.40;;;;;;;;;;4991369;28;20231;-81
2021/11/13 08:37:44;;;;;;;4.22;3.90;;;;;;;;;;4993186;28;20192;-81
2021/11/13 08:40:13;;;;;;;3.30;3.00;;;;;;;;;;4976109;28;20213;-81
2021/11/13 08:42:40;;;;;;;3.80;3.40;;;;;;;;;;4983992;28;20193;-81
2021/11/13 08:45:08;;;;;;;4.28;3.17;;;;;;;;;;4985409;28;20193;-81
2021/11/13 08:47:35;;;;;;;3.83;2.85;;;;;;;;;;4986947;28;20197;-81
2021/11/13 08:50:02;;;;;;;3.30;2.92;;;;;;;;;;4990135;28;20212;-80
2021/11/13 08:52:29;;;;;;;3.20;2.90;;;;;;;;;;4991496;28;20729;-80
2021/11/13 08:54:56;;;;;;;3.38;2.80;;;;;;;;;;4991595;28;20193;-80
2021/11/13 08:57:27;;;;;;;2.97;2.70;;;;;;;;;;4992527;28;20595;-80
2021/11/13 08:59:54;;;;;;;3.03;2.63;;;;;;;;;;4991824;28;20189;-80
2021/11/13 09:02:24;;;;;;;3.38;2.63;;;;;;;;;;4984654;28;20200;-81
2021/11/13 09:04:51;;;;;;;3.28;2.70;;;;;;;;;;4991819;28;20208;-80
2021/11/13 09:07:18;;;;;;;2.42;2.22;;;;;;;;;;4992735;28;20193;-80
2021/11/13 09:09:45;;;;;;;2.45;2.28;;;;;;;;;;4990280;28;20608;-80
2021/11/13 09:12:14;;;;;;;2.92;2.53;;;;;;;;;;4991690;28;20197;-81
2021/11/13 09:14:43;;;;;;;3.65;2.90;;;;;;;;;;4991661;28;20197;-80
2021/11/13 09:17:10;;;;;;;2.55;2.35;;;;;;;;;;4990377;28;20197;-80
2021/11/13 09:19:37;;;;;;;5.70;2.53;;;;;;;;;;4991853;28;20262;-80
2021/11/13 09:22:04;;;;;;;3.03;2.75;;;;;;;;;;4991668;28;20200;-79
2021/11/13 09:24:31;;;;;;;2.80;2.50;;;;;;;;;;4990443;28;20678;-81
2021/11/13 09:26:58;;;;;;;4.10;3.35;;;;;;;;;;4992608;28;20196;-80
2021/11/13 09:29:25;;;;;;;3.03;2.40;;;;;;;;;;4990912;28;20223;-81
2021/11/13 09:31:54;;;;;;;2.78;2.58;;;;;;;;;;4983378;28;20190;-80
2021/11/13 09:34:22;;;;;;;3.03;2.65;;;;;;;;;;4991462;28;20420;-80
2021/11/13 09:36:49;;;;;;;2.85;2.35;;;;;;;;;;4991076;28;20555;-80
2021/11/13 09:39:16;;;;;;;2.65;2.45;;;;;;;;;;4986780;28;20200;-80
2021/11/13 09:41:44;;;;;;;3.08;2.53;;;;;;;;;;4991815;28;20192;-80
2021/11/13 09:44:12;;;;;;;2.85;2.13;;;;;;;;;;4990841;28;20200;-80
2021/11/13 09:46:40;;;;;;;2.53;2.33;;;;;;;;;;4991145;28;20193;-77
2021/11/13 09:49:09;;;;;;;3.25;2.85;;;;;;;;;;4990950;28;20499;-82
2021/11/13 09:51:37;;;;;;;2.85;2.65;;;;;;;;;;4984982;28;20204;-84
2021/11/13 09:54:05;;;;;;;3.13;2.63;;;;;;;;;;4997554;28;20266;-83
2021/11/13 09:56:32;;;;;;;2.75;2.55;;;;;;;;;;4980806;28;20218;-82
2021/11/13 09:58:59;;;;;;;2.58;2.38;;;;;;;;;;4993051;28;20197;-81
2021/11/13 10:01:26;;;;;;;2.97;2.50;;;;;;;;;;4990400;28;20604;-80
2021/11/13 10:03:53;;;;;;;3.40;3.10;;;;;;;;;;4991400;28;20193;-83
2021/11/13 10:06:22;;;;;;;2.53;2.33;;;;;;;;;;4986543;28;20188;-82
2021/11/13 10:08:50;;;;;;;2.85;2.40;;;;;;;;;;4988809;28;20652;-84
2021/11/13 10:11:18;;;;;;;3.22;2.90;;;;;;;;;;4990453;28;20229;-82
2021/11/13 10:13:46;;;;;;;3.15;2.67;;;;;;;;;;4987186;28;20190;-85
2021/11/13 10:16:15;;;;;;;2.42;1.98;;;;;;;;;;4986624;28;20205;-82
2021/11/13 10:18:44;;;;;;;3.83;2.10;;;;;;;;;;4993405;28;20232;-83
2021/11/13 10:21:12;;;;;;;2.50;2.30;;;;;;;;;;4993887;28;20663;-81
2021/11/13 10:23:42;;;;;;;3.17;2.88;;;;;;;;;;4987477;28;20193;-83
2021/11/13 10:26:10;;;;;;;3.05;2.50;;;;;;;;;;4983974;28;20196;-82
2021/11/13 10:28:42;;;;;;;2.33;1.92;;;;;;;;;;4991312;28;20615;-89
2021/11/13 10:31:11;;;;;;;2.95;2.67;;;;;;;;;;4999293;28;20623;-83
2021/11/13 10:33:38;;;;;;;2.50;2.30;;;;;;;;;;4995719;28;20200;-81
2021/11/13 10:36:06;;;;;;;2.15;1.67;;;;;;;;;;4994399;28;20215;-84
2021/11/13 10:38:33;;;;;;;2.00;1.70;;;;;;;;;;4994259;28;20559;-86
2021/11/13 10:41:03;;;;;;;2.17;1.95;;;;;;;;;;4992528;28;20664;-82
2021/11/13 10:43:34;;;;;;;2.33;2.13;;;;;;;;;;4975940;28;20208;-83
2021/11/13 10:46:03;;;;;;;3.15;2.15;;;;;;;;;;4988155;28;20200;-84
2021/11/13 10:48:30;;;;;;;2.05;1.85;;;;;;;;;;4991539;28;20204;-82
2021/11/13 10:51:02;;;;;;;1.65;1.55;;;;;;;;;;4989334;28;20224;-82
2021/11/13 10:53:30;;;;;;;4.43;1.95;;;;;;;;;;4986437;28;20193;-83
2021/11/13 10:56:09;;;;;;;2.47;2.10;;;;;;;;;;4990092;28;20212;-82
2021/11/13 10:58:37;;;;;;;2.20;1.98;;;;;;;;;;4991705;28;20249;-81
2021/11/13 11:01:07;;;;;;;1.83;1.67;;;;;;;;;;4990448;28;20593;-82
2021/11/13 11:03:35;;;;;;;2.78;2.50;;;;;;;;;;4980705;28;20201;-84
2021/11/13 11:06:02;;;;;;;2.30;1.80;;;;;;;;;;4990749;28;20197;-88
2021/11/13 11:08:30;;;;;;;3.25;2.38;;;;;;;;;;4983152;28;20197;-86
2021/11/13 11:10:58;;;;;;;2.35;2.13;;;;;;;;;;4994706;28;20278;-85
2021/11/13 11:13:44;;;;;;;1.92;1.63;;;;;;;;;;4994954;28;20204;-88
2021/11/13 11:16:25;;;;;;;1.63;1.52;;;;;;;;;;4979278;28;20208;-84
2021/11/13 11:18:57;;;;;;;2.65;2.20;;;;;;;;;;4991030;28;20197;-82
2021/11/13 11:21:40;;;;;;;2.10;1.40;;;;;;;;;;4993847;28;20204;-82
2021/11/13 11:24:11;;;;;;;2.88;2.35;;;;;;;;;;4983364;28;20205;-83
2021/11/13 11:26:38;;;;;;;2.22;1.83;;;;;;;;;;4995294;28;20603;-84
2021/11/13 11:29:07;;;;;;;2.25;1.70;;;;;;;;;;4994023;28;20193;-87
2021/11/13 11:31:41;;;;;;;1.83;1.73;;;;;;;;;;4994249;28;20209;-83
2021/11/13 11:34:08;;;;;;;1.80;1.42;;;;;;;;;;4992769;28;20203;-89
2021/11/13 11:36:35;;;;;;;1.90;1.55;;;;;;;;;;4991850;28;20201;-83
2021/11/13 11:39:02;;;;;;;1.92;1.70;;;;;;;;;;4994187;28;20224;-85
2021/11/13 11:41:29;;;;;;;2.53;1.63;;;;;;;;;;5000992;28;20196;-86
2021/11/13 11:43:56;;;;;;;1.50;1.40;;;;;;;;;;4993691;28;20599;-89
2021/11/13 11:46:26;;;;;;;3.53;1.85;;;;;;;;;;4980075;28;20208;-80
2021/11/13 11:48:54;;;;;;;1.90;1.73;;;;;;;;;;4985501;28;20193;-84
2021/11/13 11:51:21;;;;;;;1.70;1.58;;;;;;;;;;4990214;28;20213;-83
2021/11/13 11:53:48;;;;;;;1.80;1.60;;;;;;;;;;4993540;28;20197;-82
2021/11/13 11:56:15;;;;;;;2.20;2.00;;;;;;;;;;4993931;28;20703;-80
2021/11/13 11:58:42;;;;;;;2.03;1.85;;;;;;;;;;4994343;28;20679;-82
2021/11/13 12:01:24;;;;;;;1.70;1.60;;;;;;;;;;4991991;28;20212;-84
2021/11/13 12:03:52;;;;;;;2.03;1.58;;;;;;;;;;4994975;28;20203;-77
2021/11/13 12:06:39;;;;;;;2.17;1.95;;;;;;;;;;4991838;28;20652;-83
2021/11/13 12:09:06;;;;;;;1.73;1.60;;;;;;;;;;4990844;28;20231;-78
2021/11/13 12:11:36;;;;;;;1.88;1.70;;;;;;;;;;4992405;28;20216;-79
2021/11/13 12:14:26;;;;;;;1.98;1.70;;;;;;;;;;4990236;28;20571;-82
2021/11/13 12:16:53;;;;;;;4.03;1.75;;;;;;;;;;4982696;28;20228;-84
2021/11/13 12:19:22;;;;;;;1.48;1.35;;;;;;;;;;4989950;28;20259;-83
2021/11/13 12:21:57;;;;;;;2.05;1.85;;;;;;;;;;4993850;28;20615;-84
2021/11/13 12:24:24;;;;;;;3.00;2.00;;;;;;;;;;4992219;28;20220;-84
2021/11/13 12:27:01;;;;;;;1.38;1.17;;;;;;;;;;4992531;28;20193;-83
2021/11/13 12:29:29;;;;;;;2.30;1.55;;;;;;;;;;4985106;28;20185;-84
2021/11/13 12:31:57;;;;;;;2.00;1.80;;;;;;;;;;4992298;28;20220;-83
2021/11/13 12:34:34;;;;;;;3.17;2.00;;;;;;;;;;4989501;28;20706;-84
2021/11/13 12:37:03;;;;;;;2.05;1.40;;;;;;;;;;4975614;28;20285;-83
2021/11/13 12:39:31;;;;;;;1.40;1.30;;;;;;;;;;4983764;28;20197;-83
2021/11/13 12:42:05;;;;;;;1.55;1.33;;;;;;;;;;4984166;28;20200;-83
2021/11/13 12:44:34;;;;;;;1.60;1.50;;;;;;;;;;4995139;28;20188;-84
2021/11/13 12:47:03;;;;;;;1.80;1.70;;;;;;;;;;4993649;28;20193;-83
2021/11/13 12:49:36;;;;;;;1.90;1.65;;;;;;;;;;4988698;28;20259;-84
2021/11/13 12:52:06;;;;;;;1.52;1.30;;;;;;;;;;4992780;28;20220;-83
2021/11/13 12:54:33;;;;;;;1.85;1.75;;;;;;;;;;4981213;28;20569;-83
2021/11/13 12:57:03;;;;;;;2.90;1.80;;;;;;;;;;4981741;28;20227;-83
2021/11/13 12:59:31;;;;;;;2.08;1.70;;;;;;;;;;4989347;28;20193;-83
2021/11/13 13:02:00;;;;;;;1.70;1.60;;;;;;;;;;4991303;28;20219;-83
2021/11/13 13:04:30;;;;;;;1.50;1.40;;;;;;;;;;4991114;28;20193;-81
2021/11/13 13:06:59;;;;;;;1.73;1.63;;;;;;;;;;4991891;28;20196;-84
2021/11/13 13:09:27;;;;;;;1.70;1.52;;;;;;;;;;4989358;28;20255;-80
2021/11/13 13:11:56;;;;;;;1.88;1.50;;;;;;;;;;4989560;28;20311;-80
2021/11/13 13:14:26;;;;;;;1.70;1.60;;;;;;;;;;4990511;28;20679;-80
2021/11/13 13:16:53;;;;;;;1.88;1.77;;;;;;;;;;4991150;28;20212;-80
2021/11/13 13:19:25;;;;;;;1.60;1.50;;;;;;;;;;4991222;28;20196;-82
2021/11/13 13:21:53;;;;;;;1.50;1.40;;;;;;;;;;4986444;28;20197;-80
2021/11/13 13:24:22;;;;;;;2.20;1.60;;;;;;;;;;4983925;28;20197;-79
2021/11/13 13:26:49;;;;;;;1.45;1.35;;;;;;;;;;4982221;28;20201;-82
2021/11/13 13:29:21;;;;;;;1.85;1.55;;;;;;;;;;4985081;28;20599;-86
2021/11/13 13:31:59;;;;;;;1.52;1.38;;;;;;;;;;4991792;28;20225;-81
2021/11/13 13:34:26;;;;;;;1.98;1.42;;;;;;;;;;4988792;28;20193;-80
2021/11/13 13:36:57;;;;;;;1.88;1.70;;;;;;;;;;4991549;28;20203;-79
2021/11/13 13:39:26;;;;;;;1.48;1.38;;;;;;;;;;4989984;28;20197;-77
2021/11/13 13:41:53;;;;;;;2.15;1.80;;;;;;;;;;4982465;28;20473;-77
2021/11/13 13:44:20;;;;;;;1.80;1.50;;;;;;;;;;4991364;28;20200;-78
2021/11/13 13:46:47;;;;;;;1.73;1.60;;;;;;;;;;4991382;28;20201;-78
2021/11/13 13:49:16;;;;;;;1.83;1.63;;;;;;;;;;4991377;28;20223;-78
2021/11/13 13:51:45;;;;;;;1.73;1.63;;;;;;;;;;4990357;28;20232;-77
2021/11/13 13:54:15;;;;;;;1.65;1.50;;;;;;;;;;4989118;28;20201;-77
2021/11/13 13:56:44;;;;;;;2.10;1.85;;;;;;;;;;4990950;28;20707;-78
2021/11/13 13:59:20;;;;;;;1.73;1.52;;;;;;;;;;5000257;28;20610;-80
2021/11/13 14:01:52;;;;;;;1.60;1.50;;;;;;;;;;4975804;28;20204;-80
2021/11/13 14:04:19;;;;;;;1.85;1.73;;;;;;;;;;4986786;28;20224;-84
2021/11/13 14:06:46;;;;;;;1.70;1.60;;;;;;;;;;4993665;28;20563;-79
2021/11/13 14:09:14;;;;;;;1.77;1.60;;;;;;;;;;4982321;28;20564;-77
2021/11/13 14:11:41;;;;;;;2.47;2.28;;;;;;;;;;4979363;28;20220;-80
2021/11/13 14:14:09;;;;;;;1.65;1.35;;;;;;;;;;4994146;28;20216;-79
2021/11/13 14:16:41;;;;;;;2.03;1.70;;;;;;;;;;4989629;28;20556;-80
2021/11/13 14:19:08;;;;;;;1.50;1.40;;;;;;;;;;4992107;28;20691;-79
2021/11/13 14:21:35;;;;;;;2.33;1.92;;;;;;;;;;4991418;28;20247;-75
2021/11/13 14:24:03;;;;;;;1.80;1.70;;;;;;;;;;4993932;28;20204;-78
2021/11/13 14:26:31;;;;;;;1.80;1.58;;;;;;;;;;4994645;28;20205;-78
2021/11/13 14:28:59;;;;;;;2.17;1.70;;;;;;;;;;4986198;28;20308;-78
2021/11/13 14:31:30;;;;;;;2.30;1.80;;;;;;;;;;4978100;28;20221;-79
2021/11/13 14:33:58;;;;;;;1.90;1.58;;;;;;;;;;4976075;28;20204;-78
2021/11/13 14:36:26;;;;;;;1.63;1.52;;;;;;;;;;4994833;28;20193;-77
2021/11/13 14:38:55;;;;;;;1.45;1.35;;;;;;;;;;4993831;28;20204;-78
2021/11/13 14:41:22;;;;;;;1.70;1.55;;;;;;;;;;4989279;28;20615;-78
2021/11/13 14:43:49;;;;;;;1.63;1.42;;;;;;;;;;4995236;28;20281;-77
2021/11/13 14:46:17;;;;;;;1.75;1.65;;;;;;;;;;4994374;28;20193;-78
2021/11/13 14:48:46;;;;;;;1.83;1.60;;;;;;;;;;4991606;28;20461;-78